This is the latest recevied weather packets stored in our database for station/object KF6RAL-6. If no packets are shown the sender has not sent any weather packets the latest 1 day(s).
| Time | Temp. | Humidity | Pressure | Rain* | Wind** | Luminosity | Snow |
|---|---|---|---|---|---|---|---|
| 1778035455 | 16.11° C | 50% | 1007.1 hPa | 0 mm | - | - | - |
| 1778035034 | 16.11° C | 49% | 1007.1 hPa | 0 mm | - | - | - |
| 1778034613 | 16.67° C | 47% | 1006.8 hPa | 0 mm | - | - | - |
| 1778034192 | 17.78° C | 45% | 1006.4 hPa | 0 mm | - | - | - |
| 1778033350 | 18.33° C | 45% | 1006.1 hPa | 0 mm | - | - | - |
| 1778032929 | 17.78° C | 45% | 1006.1 hPa | 0 mm | - | - | - |
| 1778032508 | 18.33° C | 44% | 1006.1 hPa | 0 mm | - | - | - |
| 1778032088 | 18.33° C | 44% | 1006.2 hPa | 0 mm | - | - | - |
| 1778031245 | 18.89° C | 41% | 1006.8 hPa | 0 mm | - | - | - |
| 1778030824 | 18.89° C | 43% | 1006.8 hPa | 0 mm | - | - | - |
| 1778030403 | 18.33° C | 42% | 1006.3 hPa | 0 mm | - | - | - |
| 1778029982 | 18.89° C | 40% | 1006 hPa | 0 mm | - | - | - |
| 1778028719 | 18.89° C | 40% | 1006.8 hPa | 0 mm | - | - | - |
| 1778028298 | 18.89° C | 41% | 1006.2 hPa | 0 mm | - | - | - |
| 1778027877 | 18.89° C | 41% | 1006.3 hPa | 0 mm | - | - | - |
| 1778027456 | 18.89° C | 42% | 1006.2 hPa | 0 mm | - | - | - |
| 1778027035 | 18.89° C | 41% | 1006.2 hPa | 0 mm | - | - | - |
| 1778026614 | 18.33° C | 44% | 1006.3 hPa | 0 mm | - | - | - |
| 1778026194 | 18.33° C | 42% | 1006.2 hPa | 0 mm | - | - | - |
| 1778024930 | 18.33° C | 43% | 1006.3 hPa | 0 mm | - | - | - |
| 1778014826 | 15.56° C | 50% | 1008.1 hPa | 0 mm | - | - | - |
* Rain latest hour (hover to see other rain measurements)
** Current wind speed in m/s (hover to see current wind gust speed)